createdAt,value
2018-09-20T00:01:38.621Z,55998.71
2018-09-20T00:04:07.832Z,55993.57
2018-09-20T00:06:37.074Z,56006.93
2018-09-20T00:09:07.816Z,56010.02
2018-09-20T00:11:37.065Z,56004.87
2018-09-20T00:14:06.318Z,55997.68
2018-09-20T00:16:35.613Z,55989.45
2018-09-20T00:19:04.822Z,55983.28
2018-09-20T00:21:34.089Z,55999.73
2018-09-20T00:24:03.470Z,55993.57
2018-09-20T00:26:32.740Z,55987.40
2018-09-20T00:29:01.938Z,56005.90
2018-09-20T00:31:31.186Z,55980.20
2018-09-20T00:34:00.385Z,56007.96
2018-09-20T00:36:29.624Z,55997.68
2018-09-20T00:38:58.834Z,56013.10
2018-09-20T00:41:28.141Z,56018.24
2018-09-20T00:43:57.654Z,56004.87
2018-09-20T00:46:26.903Z,56033.67
2018-09-20T00:48:56.967Z,55995.62
2018-09-20T00:51:26.219Z,56047.03
2018-09-20T00:53:55.469Z,56012.07
2018-09-20T00:56:24.755Z,55981.23
2018-09-20T00:58:54.055Z,56001.79
2018-09-20T01:01:23.311Z,56032.64
2018-09-20T01:03:52.539Z,56006.93
2018-09-20T01:06:22.243Z,56013.10
2018-09-20T01:08:51.556Z,56028.52
2018-09-20T01:11:20.853Z,56010.02
2018-09-20T01:13:50.093Z,55991.51
2018-09-20T01:16:19.320Z,55999.73
2018-09-20T01:18:48.557Z,56007.96
2018-09-20T01:21:17.845Z,56002.82
2018-09-20T01:23:47.127Z,56017.21
2018-09-20T01:26:16.426Z,55998.71
2018-09-20T01:28:45.659Z,56018.24
2018-09-20T01:31:14.899Z,56021.33
2018-09-20T01:33:44.196Z,56019.27
2018-09-20T01:36:13.545Z,56017.21
2018-09-20T01:38:42.807Z,56037.78
2018-09-20T01:41:12.096Z,56018.24
2018-09-20T01:43:41.382Z,56034.70
2018-09-20T01:46:10.689Z,56032.64
2018-09-20T01:48:39.921Z,56018.24
2018-09-20T01:51:09.186Z,56017.21
2018-09-20T01:53:38.403Z,56034.70
2018-09-20T01:56:11.386Z,56026.47
2018-09-20T01:58:40.671Z,56008.99
2018-09-20T02:01:09.915Z,56031.61
2018-09-20T02:03:39.161Z,56015.16
2018-09-20T02:06:08.423Z,56017.21
2018-09-20T02:08:39.228Z,56018.24
2018-09-20T02:11:08.464Z,56013.10
2018-09-20T02:13:37.654Z,56012.07
2018-09-20T02:16:07.041Z,56066.57
2018-09-20T02:18:36.294Z,56064.51
2018-09-20T02:21:05.544Z,56048.06
2018-09-20T02:23:34.816Z,56029.55
2018-09-20T02:26:04.104Z,56024.41
2018-09-20T02:28:33.352Z,56016.19
2018-09-20T02:31:02.607Z,56020.30
2018-09-20T02:33:31.914Z,56036.75
2018-09-20T02:36:01.118Z,56018.24
2018-09-20T02:38:30.509Z,56030.58
2018-09-20T02:40:59.804Z,56034.70
2018-09-20T02:43:29.057Z,56030.58
2018-09-20T02:45:58.325Z,56019.27
2018-09-20T02:48:27.594Z,56051.14
2018-09-20T02:50:56.859Z,56061.43
2018-09-20T02:53:26.138Z,56026.47
2018-09-20T02:55:55.445Z,56065.54
2018-09-20T02:58:24.721Z,56068.62
2018-09-20T03:00:53.992Z,56029.55
2018-09-20T03:03:23.191Z,56057.32
2018-09-20T03:05:52.414Z,56037.78
2018-09-20T03:08:21.736Z,56040.86
2018-09-20T03:10:51.181Z,56064.51
2018-09-20T03:13:20.497Z,56074.80
2018-09-20T03:15:49.792Z,56059.37
2018-09-20T03:18:19.052Z,56038.81
2018-09-20T03:20:48.340Z,56073.77
2018-09-20T03:23:17.612Z,56030.58
2018-09-20T03:25:46.868Z,56054.23
2018-09-20T03:28:16.121Z,56042.92
2018-09-20T03:30:45.654Z,56038.81
2018-09-20T03:33:14.685Z,56067.60
2018-09-20T03:35:44.008Z,56064.51
2018-09-20T03:38:13.354Z,56048.06
2018-09-20T03:40:42.640Z,56050.12
2018-09-20T03:43:11.900Z,56065.54
2018-09-20T03:45:41.182Z,56046.00
2018-09-20T03:48:10.453Z,56034.70
2018-09-20T03:50:39.725Z,56054.23
2018-09-20T03:53:14.379Z,56059.37
2018-09-20T03:55:43.692Z,56034.70
2018-09-20T03:58:12.887Z,56066.57
2018-09-20T04:00:42.085Z,56044.98
2018-09-20T04:03:11.315Z,56062.46
2018-09-20T04:05:40.541Z,56049.09
2018-09-20T04:08:09.785Z,56020.30
2018-09-20T04:10:39.025Z,56071.71
2018-09-20T04:13:08.281Z,56010.02
2018-09-20T04:15:37.574Z,56069.65
2018-09-20T04:18:06.852Z,56079.94
2018-09-20T04:20:36.182Z,56010.02
2018-09-20T04:23:05.407Z,56055.26
2018-09-20T04:25:41.297Z,56065.54
2018-09-20T04:28:10.523Z,56055.26
2018-09-20T04:30:39.801Z,56050.12
2018-09-20T04:33:09.016Z,56051.14
2018-09-20T04:35:38.344Z,56053.20
2018-09-20T04:38:07.607Z,56054.23
2018-09-20T04:40:36.854Z,56047.03
2018-09-20T04:43:06.302Z,56077.88
2018-09-20T04:45:35.576Z,56073.77
2018-09-20T04:48:04.944Z,56061.43
2018-09-20T04:50:34.315Z,56042.92
2018-09-20T04:53:03.570Z,56030.58
2018-09-20T04:55:32.847Z,56070.68
2018-09-20T04:58:02.090Z,56036.75
2018-09-20T05:00:31.311Z,56055.26
2018-09-20T05:03:00.604Z,56067.60
2018-09-20T05:05:29.902Z,56068.62
2018-09-20T05:07:59.151Z,56044.98
2018-09-20T05:10:28.402Z,56055.26
2018-09-20T05:12:57.655Z,56060.40
2018-09-20T05:15:26.884Z,56053.20
2018-09-20T05:17:56.081Z,56042.92
2018-09-20T05:20:25.306Z,56079.94
2018-09-20T05:22:54.495Z,56064.51
2018-09-20T05:25:23.742Z,56066.57
2018-09-20T05:27:52.979Z,56065.54
2018-09-20T05:30:22.214Z,56048.06
2018-09-20T05:32:51.477Z,56020.30
2018-09-20T05:35:20.818Z,56039.84
2018-09-20T05:37:49.971Z,56063.48
2018-09-20T05:40:19.592Z,56051.14
2018-09-20T05:42:48.815Z,56034.70
2018-09-20T05:45:18.045Z,56043.95
2018-09-20T05:47:47.280Z,56052.18
2018-09-20T05:50:16.467Z,56040.86
2018-09-20T05:52:45.697Z,56028.52
2018-09-20T05:55:14.972Z,56044.98
2018-09-20T05:57:44.158Z,56049.09
2018-09-20T06:00:13.464Z,56034.70
2018-09-20T06:02:42.712Z,56042.92
2018-09-20T06:05:11.985Z,56052.18
2018-09-20T06:07:41.225Z,56016.19
2018-09-20T06:10:10.461Z,56017.21
2018-09-20T06:12:39.697Z,56041.89
2018-09-20T06:15:08.979Z,56018.24
2018-09-20T06:17:38.282Z,56056.29
2018-09-20T06:20:07.621Z,56046.00
2018-09-20T06:22:36.904Z,56021.33
2018-09-20T06:25:06.346Z,56030.58
2018-09-20T06:27:35.608Z,56021.33
2018-09-20T06:30:05.121Z,56053.20
2018-09-20T06:32:34.667Z,56039.84
2018-09-20T06:35:03.936Z,56011.05
2018-09-20T06:37:33.159Z,56022.36
2018-09-20T06:40:02.398Z,56011.05
2018-09-20T06:42:31.652Z,56021.33
2018-09-20T06:45:00.930Z,56025.44
2018-09-20T06:47:30.216Z,56006.93
2018-09-20T06:49:59.502Z,56036.75
2018-09-20T06:52:28.771Z,56022.36
2018-09-20T06:54:58.001Z,56020.30
2018-09-20T06:57:31.509Z,56004.87
2018-09-20T07:00:00.739Z,56021.33
2018-09-20T07:02:30.053Z,56034.70
2018-09-20T07:04:59.278Z,55999.73
2018-09-20T07:07:28.763Z,56010.02
2018-09-20T07:09:58.019Z,55998.71
2018-09-20T07:12:27.727Z,55970.95
2018-09-20T07:14:57.081Z,56005.90
2018-09-20T07:17:26.405Z,55997.68
2018-09-20T07:19:55.726Z,56021.33
2018-09-20T07:22:24.975Z,56005.90
2018-09-20T07:24:54.182Z,56028.52
2018-09-20T07:27:23.412Z,55997.68
2018-09-20T07:29:52.637Z,55960.66
2018-09-20T07:32:21.868Z,56002.82
2018-09-20T07:35:28.113Z,55948.32
2018-09-20T07:37:57.343Z,55967.86
2018-09-20T07:40:26.561Z,55974.03
2018-09-20T07:42:55.828Z,55962.72
2018-09-20T07:45:25.104Z,55989.45
2018-09-20T07:47:54.333Z,55940.10
2018-09-20T07:50:23.563Z,55966.83
2018-09-20T07:52:52.819Z,55955.52
2018-09-20T07:55:22.028Z,55951.41
2018-09-20T07:57:51.285Z,55938.04
2018-09-20T08:00:20.526Z,55976.09
2018-09-20T08:02:49.762Z,55950.38
2018-09-20T08:05:19.023Z,55947.30
2018-09-20T08:07:48.278Z,55932.90
2018-09-20T08:10:17.469Z,55911.31
2018-09-20T08:12:46.674Z,55933.93
2018-09-20T08:15:15.948Z,55904.11
2018-09-20T08:17:45.141Z,55902.05
2018-09-20T08:20:14.322Z,55933.93
2018-09-20T08:22:43.572Z,55912.34
2018-09-20T08:25:12.782Z,55929.82
2018-09-20T08:27:42.020Z,55932.90
2018-09-20T08:30:11.285Z,55918.50
2018-09-20T08:32:40.542Z,55911.31
2018-09-20T08:35:09.842Z,55941.13
2018-09-20T08:37:39.224Z,55913.36
2018-09-20T08:40:08.336Z,55924.68
2018-09-20T08:42:37.633Z,55930.84
2018-09-20T08:45:07.414Z,55931.87
2018-09-20T08:47:36.642Z,55931.87
2018-09-20T08:50:06.356Z,55924.68
2018-09-20T08:52:35.650Z,55919.54
2018-09-20T08:55:04.902Z,55917.48
2018-09-20T08:57:39.425Z,55896.91
2018-09-20T09:00:08.747Z,55901.03
2018-09-20T09:02:37.981Z,55886.63
2018-09-20T09:05:07.305Z,55903.08
2018-09-20T09:07:36.529Z,55879.43
2018-09-20T09:10:05.925Z,55917.48
2018-09-20T09:12:35.244Z,55879.43
2018-09-20T09:15:04.593Z,55909.25
2018-09-20T09:17:33.862Z,55871.21
2018-09-20T09:20:03.192Z,55876.35
2018-09-20T09:22:32.492Z,55816.71
2018-09-20T09:25:01.680Z,55797.18
2018-09-20T09:27:30.944Z,55796.15
2018-09-20T09:30:00.191Z,55804.38
2018-09-20T09:32:29.405Z,55797.18
2018-09-20T09:34:58.700Z,55796.15
2018-09-20T09:37:27.933Z,55784.84
2018-09-20T09:39:57.198Z,55777.64
2018-09-20T09:42:26.448Z,55773.53
2018-09-20T09:44:55.716Z,55783.81
2018-09-20T09:47:24.991Z,55817.75
2018-09-20T09:49:54.212Z,55801.29
2018-09-20T09:52:23.469Z,55829.05
2018-09-20T09:54:52.812Z,55801.29
2018-09-20T09:57:22.076Z,55829.05
2018-09-20T09:59:51.471Z,55817.75
2018-09-20T10:02:20.648Z,55843.45
2018-09-20T10:04:49.904Z,55810.55
2018-09-20T10:07:19.231Z,55811.57
2018-09-20T10:09:48.351Z,55820.83
2018-09-20T10:12:17.646Z,55805.41
2018-09-20T10:14:46.837Z,55781.76
2018-09-20T10:17:16.038Z,55823.91
2018-09-20T10:19:45.333Z,55838.31
2018-09-20T10:22:14.535Z,55858.87
2018-09-20T10:24:43.795Z,55823.91
2018-09-20T10:27:13.017Z,55825.97
2018-09-20T10:29:42.260Z,55798.21
2018-09-20T10:32:11.569Z,55853.73
2018-09-20T10:34:40.821Z,55829.05
2018-09-20T10:37:10.048Z,55831.11
2018-09-20T10:39:39.256Z,55855.79
2018-09-20T10:42:08.536Z,55867.10
2018-09-20T10:44:37.808Z,55818.77
2018-09-20T10:47:07.025Z,55839.34
2018-09-20T10:49:36.299Z,55846.53
2018-09-20T10:52:05.529Z,55852.70
2018-09-20T10:54:34.834Z,55854.76
2018-09-20T10:57:04.102Z,55858.87
2018-09-20T10:59:33.378Z,55874.29
2018-09-20T11:02:02.704Z,55854.76
2018-09-20T11:04:31.922Z,55865.04
2018-09-20T11:07:01.188Z,55864.01
2018-09-20T11:09:30.497Z,55872.24
2018-09-20T11:11:59.719Z,55875.32
2018-09-20T11:14:29.036Z,55892.80
2018-09-20T11:16:58.290Z,55892.80
2018-09-20T11:19:27.617Z,55894.86
2018-09-20T11:21:56.852Z,55903.08
2018-09-20T11:24:26.075Z,55915.42
2018-09-20T11:26:55.389Z,55922.62
2018-09-20T11:29:24.658Z,55914.39
2018-09-20T11:31:53.948Z,55918.50
2018-09-20T11:34:23.192Z,55925.70
2018-09-20T11:36:52.460Z,55917.48
2018-09-20T11:39:21.780Z,55900.00
2018-09-20T11:41:51.008Z,55908.23
2018-09-20T11:44:20.285Z,55896.91
2018-09-20T11:46:49.622Z,55904.11
2018-09-20T11:49:18.826Z,55922.62
2018-09-20T11:51:48.026Z,55919.54
2018-09-20T11:54:17.307Z,55904.11
2018-09-20T11:56:46.555Z,55909.25
2018-09-20T11:59:15.792Z,55904.11
2018-09-20T12:01:45.060Z,55915.42
2018-09-20T12:04:14.291Z,55873.27
2018-09-20T12:06:43.817Z,55904.11
2018-09-20T12:09:13.035Z,55891.77
2018-09-20T12:11:42.306Z,55877.38
2018-09-20T12:14:11.582Z,55880.46
2018-09-20T12:16:40.847Z,55890.75
2018-09-20T12:19:10.143Z,55894.86
2018-09-20T12:21:39.384Z,55898.97
2018-09-20T12:24:08.636Z,55880.46
2018-09-20T12:26:37.898Z,55890.75
2018-09-20T12:29:07.287Z,55908.23
2018-09-20T12:31:36.647Z,55861.95
2018-09-20T12:34:05.939Z,55876.35
2018-09-20T12:36:35.195Z,55855.79
2018-09-20T12:39:06.763Z,55893.83
2018-09-20T12:41:36.075Z,55853.73
2018-09-20T12:44:05.309Z,55853.73
2018-09-20T12:46:34.566Z,55890.75
2018-09-20T12:49:04.078Z,55851.68
2018-09-20T12:51:33.861Z,55868.12
2018-09-20T12:54:03.400Z,55877.38
2018-09-20T12:56:32.940Z,55869.15
2018-09-20T12:59:02.196Z,55850.64
2018-09-20T13:01:31.452Z,55858.87
2018-09-20T13:04:00.696Z,55852.70
2018-09-20T13:06:29.961Z,55868.12
2018-09-20T13:08:59.172Z,55846.53
2018-09-20T13:11:28.371Z,55841.39
2018-09-20T13:13:57.810Z,55857.84
2018-09-20T13:16:26.982Z,55855.79
2018-09-20T13:18:56.201Z,55845.50
2018-09-20T13:21:25.537Z,55866.07
2018-09-20T13:23:54.803Z,55860.93
2018-09-20T13:26:24.052Z,55844.48
2018-09-20T13:28:53.421Z,55880.46
2018-09-20T13:31:22.708Z,55879.43
2018-09-20T13:33:51.943Z,55861.95
2018-09-20T13:36:21.224Z,55846.53
2018-09-20T13:38:50.447Z,55859.90
2018-09-20T13:41:19.684Z,55861.95
2018-09-20T13:43:48.990Z,55835.22
2018-09-20T13:46:18.288Z,55853.73
2018-09-20T13:48:47.666Z,55847.56
2018-09-20T13:51:16.873Z,55866.07
2018-09-20T13:53:46.419Z,55895.89
2018-09-20T13:56:15.950Z,55855.79
2018-09-20T13:58:48.576Z,55861.95
2018-09-20T14:01:18.411Z,55854.76
2018-09-20T14:03:47.697Z,55853.73
2018-09-20T14:06:16.912Z,55884.57
2018-09-20T14:08:46.826Z,55871.21
2018-09-20T14:11:16.047Z,55862.98
2018-09-20T14:13:45.334Z,55869.15
2018-09-20T14:16:14.556Z,55890.75
2018-09-20T14:18:43.741Z,55872.24
2018-09-20T14:21:13.052Z,55866.07
2018-09-20T14:23:42.302Z,55866.07
2018-09-20T14:26:11.572Z,55867.10
2018-09-20T14:28:40.898Z,55841.39
2018-09-20T14:31:10.131Z,55859.90
2018-09-20T14:33:39.433Z,55876.35
2018-09-20T14:36:08.872Z,55857.84
2018-09-20T14:38:38.181Z,55866.07
2018-09-20T14:41:07.428Z,55843.45
2018-09-20T14:43:36.863Z,55838.31
2018-09-20T14:46:06.240Z,55857.84
2018-09-20T14:48:35.581Z,55864.01
2018-09-20T14:51:04.868Z,55855.79
2018-09-20T14:53:34.122Z,55874.29
2018-09-20T14:56:03.408Z,55902.05
2018-09-20T14:58:36.544Z,55874.29
2018-09-20T15:01:07.168Z,55874.29
2018-09-20T15:03:36.540Z,55877.38
2018-09-20T15:06:05.810Z,55870.18
2018-09-20T15:08:35.081Z,55860.93
2018-09-20T15:11:04.373Z,55870.18
2018-09-20T15:13:33.598Z,55875.32
2018-09-20T15:16:02.873Z,55878.41
2018-09-20T15:18:32.112Z,55868.12
2018-09-20T15:21:01.342Z,55895.89
2018-09-20T15:23:30.699Z,55912.34
2018-09-20T15:26:00.047Z,55903.08
2018-09-20T15:28:29.371Z,55912.34
2018-09-20T15:30:58.647Z,55900.00
2018-09-20T15:33:27.900Z,55887.66
2018-09-20T15:35:57.342Z,55919.54
2018-09-20T15:38:26.720Z,55913.36
2018-09-20T15:40:55.912Z,55905.14
2018-09-20T15:43:25.199Z,55913.36
2018-09-20T15:45:54.536Z,55913.36
2018-09-20T15:48:23.776Z,55894.86
2018-09-20T15:50:53.072Z,55880.46
2018-09-20T15:53:22.363Z,55907.20
2018-09-20T15:55:51.654Z,55929.82
2018-09-20T15:58:20.935Z,55907.20
2018-09-20T16:00:50.286Z,55879.43
2018-09-20T16:03:19.482Z,55911.31
2018-09-20T16:05:48.840Z,55919.54
2018-09-20T16:08:18.119Z,55928.79
2018-09-20T16:10:47.352Z,55925.70
2018-09-20T16:13:16.627Z,55914.39
2018-09-20T16:15:45.905Z,55940.10
2018-09-20T16:18:15.132Z,55934.96
2018-09-20T16:20:44.362Z,55916.45
2018-09-20T16:23:13.697Z,55904.11
2018-09-20T16:25:42.989Z,55929.82
2018-09-20T16:28:30.059Z,55927.76
2018-09-20T16:31:21.451Z,55917.48
2018-09-20T16:34:09.068Z,55925.70
2018-09-20T16:37:05.107Z,55946.27
2018-09-20T16:39:36.806Z,55931.87
2018-09-20T16:42:07.989Z,55946.27
2018-09-20T16:44:37.408Z,55918.50
2018-09-20T16:47:06.784Z,55934.96
2018-09-20T16:49:36.325Z,55944.21
2018-09-20T16:52:05.708Z,55970.95
2018-09-20T16:54:35.024Z,55975.06
2018-09-20T16:57:04.317Z,55954.49
2018-09-20T16:59:33.623Z,55933.93
2018-09-20T17:02:02.972Z,55944.21
2018-09-20T17:04:32.293Z,55942.16
2018-09-20T17:07:01.626Z,55921.59
2018-09-20T17:09:33.734Z,55951.41
2018-09-20T17:12:02.952Z,55935.98
2018-09-20T17:14:32.227Z,55935.98
2018-09-20T17:17:01.567Z,55942.16
2018-09-20T17:19:30.858Z,55952.44
2018-09-20T17:22:00.106Z,55983.28
2018-09-20T17:24:29.344Z,55956.55
2018-09-20T17:26:58.597Z,55973.00
2018-09-20T17:29:27.936Z,55962.72
2018-09-20T17:31:57.153Z,55971.97
2018-09-20T17:34:26.762Z,55984.31
2018-09-20T17:36:58.085Z,55951.41
2018-09-20T17:39:28.721Z,55986.37
2018-09-20T17:41:59.251Z,55964.78
2018-09-20T17:44:28.490Z,55997.68
2018-09-20T17:46:57.853Z,55956.55
2018-09-20T17:49:27.171Z,55946.27
2018-09-20T17:51:57.173Z,55973.00
2018-09-20T17:54:26.858Z,55964.78
2018-09-20T17:56:56.980Z,55967.86
2018-09-20T17:59:26.323Z,55946.27
2018-09-20T18:01:55.626Z,55958.61
2018-09-20T18:04:24.925Z,55964.78
2018-09-20T18:06:54.253Z,55999.73
2018-09-20T18:09:23.746Z,55981.23
2018-09-20T18:11:53.040Z,55975.06
2018-09-20T18:14:22.257Z,55955.52
2018-09-20T18:16:51.582Z,55976.09
2018-09-20T18:19:20.901Z,55990.48
2018-09-20T18:21:50.459Z,55991.51
2018-09-20T18:24:19.697Z,55973.00
2018-09-20T18:26:49.072Z,56005.90
2018-09-20T18:29:18.334Z,55979.17
2018-09-20T18:31:47.707Z,55983.28
2018-09-20T18:34:17.052Z,55999.73
2018-09-20T18:36:46.352Z,56014.13
2018-09-20T18:39:15.620Z,55953.46
2018-09-20T18:41:46.094Z,55961.69
2018-09-20T18:44:15.616Z,55981.23
2018-09-20T18:46:44.949Z,55963.75
2018-09-20T18:49:14.188Z,55991.51
2018-09-20T18:51:43.465Z,55989.45
2018-09-20T18:54:12.685Z,55987.40
2018-09-20T18:56:42.015Z,55999.73
2018-09-20T18:59:11.325Z,56006.93
2018-09-20T19:01:40.743Z,55992.54
2018-09-20T19:04:09.982Z,56003.85
2018-09-20T19:06:39.288Z,55988.43
2018-09-20T19:09:09.908Z,56023.38
2018-09-20T19:11:39.569Z,55975.06
2018-09-20T19:14:09.180Z,56016.19
2018-09-20T19:16:38.423Z,55979.17
2018-09-20T19:19:07.708Z,55987.40
2018-09-20T19:21:36.939Z,55994.59
2018-09-20T19:24:06.203Z,55987.40
2018-09-20T19:26:35.471Z,55981.23
2018-09-20T19:29:04.761Z,55964.78
2018-09-20T19:31:34.023Z,56001.79
2018-09-20T19:34:03.226Z,56018.24
2018-09-20T19:36:32.513Z,56014.13
2018-09-20T19:39:01.771Z,55989.45
2018-09-20T19:41:31.048Z,55987.40
2018-09-20T19:44:00.302Z,56006.93
2018-09-20T19:46:29.545Z,56001.79
2018-09-20T19:48:58.810Z,56012.07
2018-09-20T19:51:28.101Z,55999.73
2018-09-20T19:53:57.352Z,55995.62
2018-09-20T19:56:26.606Z,55998.71
2018-09-20T19:58:56.034Z,55965.80
2018-09-20T20:01:25.249Z,56013.10
2018-09-20T20:03:54.520Z,55999.73
2018-09-20T20:06:23.778Z,56018.24
2018-09-20T20:08:53.134Z,56004.87
2018-09-20T20:11:22.328Z,56003.85
2018-09-20T20:13:51.608Z,55999.73
2018-09-20T20:16:20.832Z,55992.54
2018-09-20T20:18:50.126Z,56002.82
2018-09-20T20:21:19.365Z,55988.43
2018-09-20T20:23:48.616Z,56007.96
2018-09-20T20:26:17.915Z,55966.83
2018-09-20T20:28:47.243Z,56006.93
2018-09-20T20:31:16.497Z,55979.17
2018-09-20T20:33:45.830Z,55991.51
2018-09-20T20:36:15.093Z,56005.90
2018-09-20T20:38:44.536Z,55985.34
2018-09-20T20:41:13.819Z,55985.34
2018-09-20T20:43:43.091Z,55994.59
2018-09-20T20:46:12.382Z,56039.84
2018-09-20T20:48:41.631Z,56007.96
2018-09-20T20:51:11.055Z,55963.75
2018-09-20T20:53:40.318Z,56010.02
2018-09-20T20:56:09.612Z,56018.24
2018-09-20T20:58:39.039Z,56024.41
2018-09-20T21:01:11.952Z,56003.85
2018-09-20T21:03:41.281Z,55989.45
2018-09-20T21:06:10.829Z,56015.16
2018-09-20T21:08:40.160Z,55971.97
2018-09-20T21:11:09.601Z,56012.07
2018-09-20T21:13:38.998Z,55978.14
2018-09-20T21:16:08.267Z,56005.90
2018-09-20T21:18:37.654Z,56007.96
2018-09-20T21:21:07.214Z,56005.90
2018-09-20T21:23:36.453Z,56002.82
2018-09-20T21:26:05.749Z,56015.16
2018-09-20T21:28:35.046Z,55993.57
2018-09-20T21:31:04.272Z,56001.79
2018-09-20T21:33:33.511Z,55999.73
2018-09-20T21:36:02.763Z,56037.78
2018-09-20T21:38:32.060Z,55999.73
2018-09-20T21:41:01.322Z,56005.90
2018-09-20T21:43:31.396Z,55997.68
2018-09-20T21:46:00.675Z,56022.36
2018-09-20T21:48:29.883Z,56032.64
2018-09-20T21:50:59.142Z,56007.96
2018-09-20T21:53:28.361Z,55997.68
2018-09-20T21:55:57.575Z,55977.11
2018-09-20T21:58:26.779Z,56018.24
2018-09-20T22:01:02.551Z,55992.54
2018-09-20T22:03:32.978Z,56001.79
2018-09-20T22:06:02.254Z,55983.28
2018-09-20T22:08:31.528Z,56016.19
2018-09-20T22:11:00.841Z,56012.07
2018-09-20T22:13:30.163Z,56032.64
2018-09-20T22:15:59.391Z,56031.61
2018-09-20T22:18:28.668Z,56016.19
2018-09-20T22:20:57.927Z,56006.93
2018-09-20T22:23:27.166Z,56029.55
2018-09-20T22:25:56.500Z,56011.05
2018-09-20T22:28:25.766Z,56016.19
2018-09-20T22:30:55.000Z,56026.47
2018-09-20T22:33:24.253Z,55991.51
2018-09-20T22:35:53.552Z,55997.68
2018-09-20T22:38:22.820Z,55993.57
2018-09-20T22:40:52.095Z,55994.59
2018-09-20T22:43:21.316Z,56007.96
2018-09-20T22:45:50.699Z,55991.51
2018-09-20T22:48:19.948Z,56036.75
2018-09-20T22:50:49.185Z,56037.78
2018-09-20T22:53:18.425Z,55997.68
2018-09-20T22:55:47.704Z,55986.37
2018-09-20T22:58:17.033Z,55989.45
2018-09-20T23:00:46.254Z,56008.99
2018-09-20T23:03:15.481Z,56027.50
2018-09-20T23:05:44.829Z,56005.90
2018-09-20T23:08:14.096Z,56005.90
2018-09-20T23:10:43.338Z,56000.76
2018-09-20T23:13:12.607Z,55991.51
2018-09-20T23:15:41.842Z,55997.68
2018-09-20T23:18:11.123Z,56016.19
2018-09-20T23:20:40.385Z,55999.73
2018-09-20T23:23:09.720Z,56012.07
2018-09-20T23:25:38.939Z,56001.79
2018-09-20T23:28:08.371Z,56010.02
2018-09-20T23:30:37.725Z,56012.07
2018-09-20T23:33:07.048Z,56004.87
2018-09-20T23:35:36.339Z,55983.28
2018-09-20T23:38:05.596Z,56032.64
2018-09-20T23:40:34.949Z,56001.79
2018-09-20T23:43:04.359Z,56029.55
2018-09-20T23:45:33.635Z,56020.30
2018-09-20T23:48:02.939Z,56013.10
2018-09-20T23:50:32.156Z,56016.19
2018-09-20T23:53:01.458Z,56019.27
2018-09-20T23:55:30.707Z,56028.52
2018-09-20T23:58:00.024Z,56003.85
